Time;durP1;ratioP1;P1;durP2;ratioP2;P2;SDS_P1;SDS_P2;PMS_P1;PMS_P2;Temp;Humidity;BMP_temperature;BMP_pressure;BME280_temperature;BME280_humidity;BME280_pressure;Samples;Min_cycle;Max_cycle;Signal;HPM_P1;HPM_P2
2022/03/26 00:00:08;;;;;;;26.48;17.27;;;;;;;9.37;49.89;102390.45;1711774;83;21074;-66
2022/03/26 00:02:36;;;;;;;22.40;16.12;;;;;;;9.38;49.89;102387.41;1712418;83;21012;-65
2022/03/26 00:05:04;;;;;;;22.90;17.32;;;;;;;9.38;49.92;102390.88;1712163;83;21051;-66
2022/03/26 00:07:33;;;;;;;22.07;17.82;;;;;;;9.36;50.18;102392.59;1714901;83;21031;-66
2022/03/26 00:10:00;;;;;;;30.23;18.25;;;;;;;9.36;50.56;102391.30;1718311;83;21483;-66
2022/03/26 00:12:27;;;;;;;19.62;16.25;;;;;;;9.39;50.72;102392.63;1711824;83;21059;-65
2022/03/26 00:14:54;;;;;;;27.20;17.62;;;;;;;9.41;50.93;102393.52;1711892;83;21083;-66
2022/03/26 00:17:21;;;;;;;21.05;16.15;;;;;;;9.42;50.90;102399.56;1714724;83;21074;-66
2022/03/26 00:19:48;;;;;;;18.45;14.78;;;;;;;9.42;50.89;102389.17;1715126;83;22093;-65
2022/03/26 00:22:14;;;;;;;22.50;16.70;;;;;;;9.44;50.47;102392.23;1711860;83;21082;-66
2022/03/26 00:24:42;;;;;;;25.05;17.87;;;;;;;9.43;50.09;102382.72;1713671;83;21019;-66
2022/03/26 00:27:09;;;;;;;22.15;16.20;;;;;;;9.41;49.88;102389.63;1710192;83;21554;-66
2022/03/26 00:29:36;;;;;;;20.55;17.02;;;;;;;9.37;50.03;102386.55;1717967;83;21090;-65
2022/03/26 00:32:07;;;;;;;24.18;17.92;;;;;;;9.36;50.41;102386.09;1719950;83;21622;-65
2022/03/26 00:34:36;;;;;;;22.90;18.50;;;;;;;9.36;50.51;102395.19;1717758;83;21027;-65
2022/03/26 00:37:04;;;;;;;21.97;17.48;;;;;;;9.32;50.35;102388.23;1717819;83;21035;-66
2022/03/26 00:39:31;;;;;;;21.27;16.93;;;;;;;9.29;50.11;102388.22;1711858;82;21031;-65
2022/03/26 00:41:58;;;;;;;21.07;17.25;;;;;;;9.29;50.16;102383.02;1713923;83;21067;-66
2022/03/26 00:44:25;;;;;;;23.92;17.82;;;;;;;9.29;49.80;102383.02;1716253;83;21082;-65
2022/03/26 00:46:53;;;;;;;21.73;16.65;;;;;;;9.27;49.52;102385.16;1713098;83;21031;-65
2022/03/26 00:49:20;;;;;;;20.55;16.90;;;;;;;9.26;49.54;102381.67;1710485;82;21491;-66
2022/03/26 00:51:47;;;;;;;23.73;17.42;;;;;;;9.25;49.59;102387.75;1716151;83;21115;-65
2022/03/26 00:54:14;;;;;;;21.75;17.60;;;;;;;9.25;49.56;102384.27;1722361;82;21086;-65
2022/03/26 00:56:42;;;;;;;23.07;18.75;;;;;;;9.22;49.38;102381.21;1719139;83;21060;-65
2022/03/26 00:59:08;;;;;;;21.95;17.32;;;;;;;9.22;49.54;102385.52;1717228;82;21035;-66
2022/03/26 01:01:36;;;;;;;21.95;17.90;;;;;;;9.20;49.75;102385.52;1717429;83;20996;-65
2022/03/26 01:04:03;;;;;;;23.40;17.23;;;;;;;9.18;50.09;102393.72;1716721;82;21039;-65
2022/03/26 01:06:30;;;;;;;22.20;17.95;;;;;;;9.15;50.48;102383.29;1717900;83;21071;-65
2022/03/26 01:08:58;;;;;;;22.73;17.10;;;;;;;9.14;50.61;102391.95;1717723;82;21039;-65
2022/03/26 01:11:25;;;;;;;24.57;17.48;;;;;;;9.17;50.67;102392.42;1717400;83;21095;-65
2022/03/26 01:13:55;;;;;;;22.32;17.37;;;;;;;9.16;50.48;102382.45;1719520;83;21511;-65
2022/03/26 01:16:22;;;;;;;22.15;17.40;;;;;;;9.15;50.33;102385.89;1719936;83;21035;-65
2022/03/26 01:18:50;;;;;;;23.32;18.12;;;;;;;9.15;49.97;102387.64;1717110;83;21538;-65
2022/03/26 01:21:18;;;;;;;20.65;17.60;;;;;;;9.13;49.60;102385.00;1710631;83;21039;-66
2022/03/26 01:23:47;;;;;;;23.92;18.95;;;;;;;9.12;49.70;102383.28;1716073;83;21046;-66
2022/03/26 01:26:15;;;;;;;28.05;19.32;;;;;;;9.12;49.65;102387.17;1720444;83;21016;-66
2022/03/26 01:28:42;;;;;;;25.43;19.42;;;;;;;9.09;49.58;102384.53;1719260;83;21051;-65
2022/03/26 01:31:11;;;;;;;23.50;18.40;;;;;;;9.06;49.55;102388.41;1717022;82;21059;-66
2022/03/26 01:33:38;;;;;;;21.93;18.67;;;;;;;9.02;49.86;102387.94;1717322;83;21109;-66
2022/03/26 01:36:06;;;;;;;22.62;18.67;;;;;;;9.00;50.25;102388.34;1717242;83;21035;-66
2022/03/26 01:38:34;;;;;;;23.60;18.82;;;;;;;8.97;50.71;102384.41;1710835;83;21564;-66
2022/03/26 01:41:01;;;;;;;22.75;18.32;;;;;;;8.96;51.06;102387.88;1720253;83;21088;-66
2022/03/26 01:43:28;;;;;;;25.35;19.87;;;;;;;8.96;51.08;102394.36;1720428;83;21031;-66
2022/03/26 01:45:56;;;;;;;23.67;19.48;;;;;;;8.94;51.03;102394.77;1717730;83;21094;-65
2022/03/26 01:48:22;;;;;;;23.90;20.20;;;;;;;8.92;50.86;102400.38;1709778;82;21055;-65
2022/03/26 01:50:49;;;;;;;24.27;19.52;;;;;;;8.87;50.72;102402.03;1714051;83;20996;-66
2022/03/26 01:53:17;;;;;;;24.05;19.45;;;;;;;8.83;50.63;102397.66;1720346;83;21043;-65
2022/03/26 01:55:44;;;;;;;25.82;19.12;;;;;;;8.80;50.48;102406.70;1719441;83;21033;-65
2022/03/26 01:58:12;;;;;;;21.85;17.98;;;;;;;8.78;50.47;102405.81;1718216;83;21019;-66
2022/03/26 02:00:39;;;;;;;25.08;19.75;;;;;;;8.77;50.80;102404.09;1719613;83;21530;-65
2022/03/26 02:03:07;;;;;;;22.98;19.48;;;;;;;8.75;50.97;102403.20;1718727;83;21055;-65
2022/03/26 02:05:35;;;;;;;24.15;19.77;;;;;;;8.75;51.09;102409.27;1717265;83;21035;-65
2022/03/26 02:08:03;;;;;;;24.67;20.48;;;;;;;8.75;51.13;102405.80;1717656;82;21063;-65
2022/03/26 02:10:30;;;;;;;25.68;19.37;;;;;;;8.72;51.24;102405.74;1717625;83;21012;-66
2022/03/26 02:12:59;;;;;;;24.95;19.27;;;;;;;8.71;51.60;102415.28;1717206;83;21067;-66
2022/03/26 02:15:27;;;;;;;24.63;20.17;;;;;;;8.70;51.54;102415.23;1713982;83;21059;-65
2022/03/26 02:17:55;;;;;;;23.55;19.15;;;;;;;8.69;51.67;102418.70;1720160;83;21071;-66
2022/03/26 02:20:23;;;;;;;25.68;19.05;;;;;;;8.67;51.82;102412.62;1717644;83;21039;-66
2022/03/26 02:22:50;;;;;;;24.12;19.95;;;;;;;8.69;51.82;102408.31;1717934;82;21539;-66
2022/03/26 02:25:17;;;;;;;27.35;20.12;;;;;;;8.69;51.75;102413.50;1717316;82;21538;-66
2022/03/26 02:27:46;;;;;;;24.67;20.20;;;;;;;8.69;51.54;102416.10;1717390;83;21082;-66
2022/03/26 02:30:13;;;;;;;24.30;17.85;;;;;;;8.70;51.60;102410.05;1716185;83;21507;-65
2022/03/26 02:32:40;;;;;;;26.30;19.32;;;;;;;8.68;51.73;102404.84;1714474;83;21563;-66
2022/03/26 02:35:08;;;;;;;26.20;20.92;;;;;;;8.68;51.87;102414.34;1715131;83;21476;-65
2022/03/26 02:37:35;;;;;;;22.58;19.07;;;;;;;8.67;51.88;102408.31;1714138;83;21627;-65
2022/03/26 02:40:06;;;;;;;23.47;19.30;;;;;;;8.66;51.90;102422.12;1711390;83;21090;-66
2022/03/26 02:42:37;;;;;;;24.10;19.27;;;;;;;8.65;52.09;102419.52;1709884;83;21019;-65
2022/03/26 02:45:05;;;;;;;25.27;19.15;;;;;;;8.64;52.25;102419.05;1712536;83;21047;-65
2022/03/26 02:47:32;;;;;;;22.17;19.23;;;;;;;8.63;52.21;102416.91;1712285;83;21059;-65
2022/03/26 02:50:00;;;;;;;27.07;20.00;;;;;;;8.63;52.23;102417.33;1711936;83;21083;-66
2022/03/26 02:52:27;;;;;;;22.48;18.60;;;;;;;8.63;52.36;102422.09;1709554;83;21047;-65
2022/03/26 02:54:55;;;;;;;24.20;19.90;;;;;;;8.62;52.40;102415.15;1714372;83;21091;-65
2022/03/26 02:57:22;;;;;;;24.82;19.85;;;;;;;8.59;52.55;102414.25;1712237;83;21043;-65
2022/03/26 02:59:49;;;;;;;25.10;20.15;;;;;;;8.55;52.73;102416.36;1711931;83;21039;-66
2022/03/26 03:02:16;;;;;;;25.15;20.72;;;;;;;8.53;52.95;102415.47;1712080;83;21512;-65
2022/03/26 03:04:44;;;;;;;22.67;19.52;;;;;;;8.53;53.00;102419.36;1711990;83;21059;-65
2022/03/26 03:07:10;;;;;;;28.20;20.15;;;;;;;8.52;53.33;102415.89;1712771;83;21071;-66
2022/03/26 03:09:39;;;;;;;28.20;21.95;;;;;;;8.55;53.35;102424.14;1710817;83;21079;-66
2022/03/26 03:12:09;;;;;;;28.50;20.60;;;;;;;8.52;53.39;102414.59;1714868;83;21008;-65
2022/03/26 03:14:37;;;;;;;22.65;18.85;;;;;;;8.53;53.24;102425.39;1715134;83;21027;-65
2022/03/26 03:17:06;;;;;;;23.25;19.62;;;;;;;8.54;53.43;102423.68;1714534;83;21071;-65
2022/03/26 03:19:34;;;;;;;27.13;19.60;;;;;;;8.54;53.43;102423.68;1711832;83;21035;-66
2022/03/26 03:22:03;;;;;;;24.85;20.17;;;;;;;8.54;53.45;102415.90;1712237;83;21027;-65
2022/03/26 03:24:30;;;;;;;23.87;19.98;;;;;;;8.52;53.24;102415.01;1703806;83;21000;-65
2022/03/26 03:26:58;;;;;;;28.90;21.23;;;;;;;8.52;53.43;102422.79;1714015;83;21081;-66
2022/03/26 03:29:25;;;;;;;24.25;20.40;;;;;;;8.53;53.50;102428.44;1715340;83;21019;-65
2022/03/26 03:31:52;;;;;;;26.95;20.62;;;;;;;8.52;53.45;102426.69;1708421;83;21095;-65
2022/03/26 03:34:19;;;;;;;22.32;19.75;;;;;;;8.51;53.49;102423.66;1705898;83;21527;-66
2022/03/26 03:36:46;;;;;;;25.65;20.77;;;;;;;8.52;53.52;102429.28;1704405;83;21008;-66
2022/03/26 03:39:13;;;;;;;25.20;20.02;;;;;;;8.51;53.43;102429.70;1698439;83;21032;-67
2022/03/26 03:41:41;;;;;;;23.15;18.95;;;;;;;8.53;53.54;102431.03;1707037;83;21067;-66
2022/03/26 03:44:07;;;;;;;24.45;20.97;;;;;;;8.55;53.48;102430.63;1704314;83;21091;-66
2022/03/26 03:46:36;;;;;;;24.23;21.02;;;;;;;8.55;53.60;102426.73;1710098;83;21558;-66
2022/03/26 03:49:03;;;;;;;27.52;21.20;;;;;;;8.55;53.48;102421.55;1706677;83;21051;-65
2022/03/26 03:51:31;;;;;;;24.85;20.43;;;;;;;8.51;53.45;102426.25;1707327;83;21511;-66
2022/03/26 03:53:58;;;;;;;25.65;20.32;;;;;;;8.50;53.56;102427.09;1707504;83;21060;-66
2022/03/26 03:56:25;;;;;;;24.50;20.23;;;;;;;8.49;53.67;102417.58;1704674;83;21080;-66
2022/03/26 03:58:52;;;;;;;24.63;20.23;;;;;;;8.51;53.78;102410.69;1704294;83;21040;-65
2022/03/26 04:01:18;;;;;;;30.10;21.42;;;;;;;8.50;53.97;102414.12;1704434;83;21024;-66
2022/03/26 04:03:46;;;;;;;26.85;21.07;;;;;;;8.46;54.12;102418.41;1704371;83;21508;-66
2022/03/26 04:06:13;;;;;;;26.37;21.45;;;;;;;8.46;54.01;102421.00;1704884;83;21472;-67
2022/03/26 04:08:40;;;;;;;24.92;20.30;;;;;;;8.43;53.97;102415.75;1702498;83;21008;-65
2022/03/26 04:11:07;;;;;;;26.00;20.77;;;;;;;8.45;53.95;102422.28;1706331;83;21059;-65
2022/03/26 04:13:33;;;;;;;24.15;19.85;;;;;;;8.47;53.94;102427.06;1707583;83;21056;-66
2022/03/26 04:16:00;;;;;;;24.87;20.12;;;;;;;8.48;53.91;102423.61;1707159;83;21504;-66
2022/03/26 04:18:27;;;;;;;24.12;20.12;;;;;;;8.50;53.85;102429.69;1705687;83;21073;-66
2022/03/26 04:20:54;;;;;;;24.95;21.12;;;;;;;8.51;53.90;102431.44;1692328;83;21056;-66
2022/03/26 04:23:21;;;;;;;27.22;20.08;;;;;;;8.52;53.85;102434.47;1707296;83;21526;-65
2022/03/26 04:25:50;;;;;;;24.23;20.57;;;;;;;8.52;53.72;102430.58;1700040;83;21012;-67
2022/03/26 04:28:17;;;;;;;26.75;20.72;;;;;;;8.52;53.87;102427.98;1704212;83;21043;-67
2022/03/26 04:30:44;;;;;;;24.15;19.85;;;;;;;8.53;53.86;102427.14;1706319;83;21067;-67
2022/03/26 04:33:12;;;;;;;24.18;21.37;;;;;;;8.53;53.87;102432.33;1714369;83;21098;-66
2022/03/26 04:35:39;;;;;;;24.92;20.25;;;;;;;8.52;53.67;102430.58;1710909;83;21530;-67
2022/03/26 04:38:06;;;;;;;23.83;19.57;;;;;;;8.52;53.61;102434.47;1712527;83;21080;-67
2022/03/26 04:40:34;;;;;;;25.82;20.92;;;;;;;8.55;53.52;102437.12;1711629;83;21055;-67
2022/03/26 04:43:01;;;;;;;27.25;20.55;;;;;;;8.56;53.58;102439.72;1712461;83;21047;-66
2022/03/26 04:45:30;;;;;;;25.35;20.30;;;;;;;8.59;53.91;102440.20;1712184;83;21570;-66
2022/03/26 04:47:57;;;;;;;26.37;21.10;;;;;;;8.61;54.09;102451.47;1711820;83;20968;-66
2022/03/26 04:50:24;;;;;;;25.62;21.05;;;;;;;8.64;53.51;102445.00;1714292;83;21086;-67
2022/03/26 04:52:51;;;;;;;27.35;20.62;;;;;;;8.65;53.34;102448.06;1714866;83;21059;-66
2022/03/26 04:55:19;;;;;;;24.87;19.90;;;;;;;8.69;53.51;102446.83;1713724;83;21773;-66
2022/03/26 05:00:17;;;;;;;31.27;22.02;;;;;;;8.70;53.32;102445.95;1624137;87;21070;-67
2022/03/26 05:02:44;;;;;;;23.35;20.23;;;;;;;8.69;53.02;102444.65;1624738;88;21034;-67
2022/03/26 05:05:12;;;;;;;25.82;20.92;;;;;;;8.69;52.93;102449.84;1625658;87;21026;-67
2022/03/26 05:07:45;;;;;;;25.55;20.57;;;;;;;8.71;53.23;102455.92;1625409;88;21054;-67
2022/03/26 05:10:14;;;;;;;28.95;21.42;;;;;;;8.71;53.29;102450.73;1621536;87;21037;-66
2022/03/26 05:12:42;;;;;;;25.57;21.25;;;;;;;8.73;53.34;102453.80;1622613;88;21679;-66
2022/03/26 05:15:11;;;;;;;26.45;21.85;;;;;;;8.74;53.15;102467.20;1622734;88;21054;-66
2022/03/26 05:17:39;;;;;;;27.35;20.70;;;;;;;8.75;53.23;102468.08;1622904;88;21081;-67
2022/03/26 05:20:08;;;;;;;23.75;20.35;;;;;;;8.78;53.14;102472.00;1624039;88;21070;-66
2022/03/26 05:22:36;;;;;;;26.50;20.48;;;;;;;8.77;52.92;102471.56;1625591;87;20985;-66
2022/03/26 05:25:04;;;;;;;23.32;19.20;;;;;;;8.78;52.96;102468.11;1625640;88;21137;-67
2022/03/26 05:27:32;;;;;;;26.02;20.45;;;;;;;8.80;52.73;102472.89;1624091;87;21109;-67
2022/03/26 05:29:59;;;;;;;25.62;20.40;;;;;;;8.82;52.53;102473.81;1624500;88;21525;-67
2022/03/26 05:32:27;;;;;;;24.77;20.32;;;;;;;8.83;52.59;102464.73;1626506;87;21077;-66
2022/03/26 05:34:53;;;;;;;28.15;21.30;;;;;;;8.86;52.46;102476.89;1616149;87;21093;-66
2022/03/26 05:37:20;;;;;;;29.85;21.40;;;;;;;8.87;52.41;102483.39;1627897;87;21030;-67
2022/03/26 05:39:48;;;;;;;23.15;19.92;;;;;;;8.88;52.58;102472.59;1627653;87;21077;-67
2022/03/26 05:42:15;;;;;;;22.58;19.57;;;;;;;8.93;52.71;102481.28;1626193;87;21057;-67
2022/03/26 05:44:43;;;;;;;26.40;21.00;;;;;;;8.97;52.66;102480.05;1626079;87;21038;-67
2022/03/26 05:47:10;;;;;;;23.87;19.82;;;;;;;9.03;52.68;102484.44;1627000;87;21164;-67
2022/03/26 05:49:37;;;;;;;23.67;19.67;;;;;;;9.10;52.51;102484.09;1623301;87;21584;-67
2022/03/26 05:52:06;;;;;;;22.87;19.57;;;;;;;9.18;52.56;102482.45;1630298;87;21074;-67
2022/03/26 05:54:33;;;;;;;23.25;18.77;;;;;;;9.24;52.68;102487.28;1626784;87;21033;-67
2022/03/26 05:57:00;;;;;;;21.93;19.10;;;;;;;9.33;52.63;102485.22;1667808;83;21067;-67
2022/03/26 05:59:28;;;;;;;25.75;20.90;;;;;;;9.40;52.79;102480.09;1720907;83;21495;-66
2022/03/26 06:01:55;;;;;;;24.23;20.20;;;;;;;9.58;52.44;102484.63;1714613;83;21102;-67
2022/03/26 06:04:23;;;;;;;33.78;23.62;;;;;;;9.78;52.08;102490.87;1714201;83;21074;-67
2022/03/26 06:06:51;;;;;;;32.65;22.45;;;;;;;10.00;51.87;102489.31;1715611;83;21039;-66
2022/03/26 06:09:19;;;;;;;35.35;24.65;;;;;;;10.22;51.09;102486.92;1714052;83;21015;-66
2022/03/26 06:11:47;;;;;;;35.52;24.32;;;;;;;10.42;50.32;102484.47;1720038;83;21102;-67
2022/03/26 06:14:18;;;;;;;23.40;20.17;;;;;;;10.60;50.22;102484.58;1712482;83;21083;-66
2022/03/26 06:16:45;;;;;;;22.90;19.87;;;;;;;10.73;49.51;102472.07;1718714;83;21098;-67
2022/03/26 06:19:14;;;;;;;23.10;19.77;;;;;;;10.84;49.03;102478.63;1717215;83;21086;-67
2022/03/26 06:21:42;;;;;;;23.52;19.85;;;;;;;10.95;48.91;102476.92;1715291;83;21011;-66
2022/03/26 06:24:11;;;;;;;23.38;19.92;;;;;;;11.10;48.84;102474.39;1714471;83;21035;-66
2022/03/26 06:26:39;;;;;;;24.85;19.87;;;;;;;11.31;48.57;102479.21;1713868;83;21039;-66
2022/03/26 06:29:06;;;;;;;24.50;20.32;;;;;;;11.55;48.03;102477.11;1714614;83;21031;-66
2022/03/26 06:31:33;;;;;;;33.25;23.57;;;;;;;11.71;47.86;102476.28;1705631;83;21585;-66
2022/03/26 06:34:01;;;;;;;29.77;22.80;;;;;;;11.87;47.80;102484.55;1702983;83;21123;-66
2022/03/26 06:36:28;;;;;;;31.10;21.82;;;;;;;12.06;47.28;102480.20;1709519;83;21067;-67
2022/03/26 06:38:55;;;;;;;25.05;21.12;;;;;;;12.23;46.97;102482.38;1705996;83;21067;-67
2022/03/26 06:41:22;;;;;;;24.45;20.75;;;;;;;12.36;46.49;102488.02;1704385;83;20996;-66
2022/03/26 06:43:49;;;;;;;21.00;18.82;;;;;;;12.41;46.37;102477.11;1704263;83;21051;-66
2022/03/26 06:46:16;;;;;;;21.82;18.37;;;;;;;12.44;46.07;102492.79;1704564;83;21047;-66
2022/03/26 06:48:43;;;;;;;22.45;17.82;;;;;;;12.39;46.19;102489.30;1704818;83;21530;-66
2022/03/26 06:51:10;;;;;;;22.05;18.27;;;;;;;12.41;45.70;102482.34;1705580;83;21040;-66
2022/03/26 06:53:37;;;;;;;21.17;18.82;;;;;;;12.39;44.84;102488.00;1707405;83;21072;-66
2022/03/26 06:56:07;;;;;;;20.57;18.50;;;;;;;12.30;44.81;102489.33;1706696;83;21067;-67
2022/03/26 06:58:35;;;;;;;21.82;18.35;;;;;;;12.20;45.12;102493.67;1711321;83;21523;-66
2022/03/26 07:01:03;;;;;;;22.13;17.25;;;;;;;12.21;45.48;102493.25;1705633;83;21053;-67
2022/03/26 07:03:30;;;;;;;21.02;18.15;;;;;;;12.26;45.57;102495.44;1706674;83;21039;-67
2022/03/26 07:05:58;;;;;;;29.48;19.15;;;;;;;12.35;45.36;102491.48;1707484;83;21031;-67
2022/03/26 07:08:27;;;;;;;21.55;18.42;;;;;;;12.46;45.31;102493.66;1707275;83;20996;-66
2022/03/26 07:10:54;;;;;;;22.22;18.75;;;;;;;12.60;44.71;102492.30;1706423;83;21068;-66
2022/03/26 07:13:21;;;;;;;20.80;18.45;;;;;;;12.65;44.23;102497.09;1704052;83;21096;-66
2022/03/26 07:15:50;;;;;;;19.92;17.73;;;;;;;12.68;44.37;102494.45;1704288;83;21583;-67
2022/03/26 07:18:18;;;;;;;19.50;17.52;;;;;;;12.78;44.26;102502.27;1704619;83;21051;-66
2022/03/26 07:20:46;;;;;;;19.30;17.30;;;;;;;12.85;44.32;102490.94;1704374;83;21036;-66
2022/03/26 07:23:13;;;;;;;19.95;17.87;;;;;;;12.99;44.10;102495.66;1705274;83;21044;-67
2022/03/26 07:25:40;;;;;;;18.55;16.57;;;;;;;13.20;43.52;102501.70;1707590;83;21047;-66
2022/03/26 07:28:07;;;;;;;21.33;17.62;;;;;;;13.38;43.09;102491.14;1703536;83;21055;-67
2022/03/26 07:30:36;;;;;;;19.20;17.12;;;;;;;13.52;42.56;102497.15;1695332;83;21040;-66
2022/03/26 07:33:03;;;;;;;20.32;17.77;;;;;;;13.52;43.02;102493.22;1676066;84;21682;-66
2022/03/26 07:35:31;;;;;;;20.90;18.35;;;;;;;13.53;43.39;102495.85;1665856;85;21524;-66
2022/03/26 07:37:58;;;;;;;22.65;18.02;;;;;;;13.47;42.72;102489.36;1663403;85;21044;-67
2022/03/26 07:40:25;;;;;;;20.00;17.62;;;;;;;13.30;43.04;102487.70;1665412;85;21045;-66
2022/03/26 07:42:52;;;;;;;19.75;17.48;;;;;;;13.21;42.37;102491.69;1657255;85;21049;-66
2022/03/26 07:45:20;;;;;;;21.20;16.77;;;;;;;13.02;42.28;102485.64;1665439;85;21757;-66
2022/03/26 07:47:47;;;;;;;19.87;17.62;;;;;;;12.86;42.35;102490.05;1666081;85;21040;-66
2022/03/26 07:50:14;;;;;;;18.73;16.60;;;;;;;12.77;42.66;102486.61;1666700;85;21053;-66
2022/03/26 07:52:41;;;;;;;23.85;18.60;;;;;;;12.75;42.85;102486.62;1667438;85;21013;-66
2022/03/26 07:55:10;;;;;;;20.68;17.55;;;;;;;12.75;43.19;102489.23;1667477;85;21480;-67
2022/03/26 07:57:37;;;;;;;26.73;18.82;;;;;;;12.72;43.46;102491.84;1665522;85;21017;-67
2022/03/26 08:00:06;;;;;;;20.80;17.35;;;;;;;12.65;43.99;102490.10;1664498;85;21060;-66
2022/03/26 08:02:36;;;;;;;21.23;18.35;;;;;;;12.57;44.40;102495.78;1667079;85;21040;-66
2022/03/26 08:05:06;;;;;;;20.77;18.55;;;;;;;12.54;44.64;102497.11;1664400;85;21071;-66
2022/03/26 08:07:33;;;;;;;20.43;18.20;;;;;;;12.55;44.90;102493.61;1664753;85;21049;-66
2022/03/26 08:10:02;;;;;;;22.20;18.67;;;;;;;12.56;45.08;102487.53;1664819;85;21044;-66
2022/03/26 08:12:29;;;;;;;19.07;17.07;;;;;;;12.53;45.20;102486.68;1661362;85;21009;-67
2022/03/26 08:14:56;;;;;;;19.07;17.05;;;;;;;12.58;45.12;102486.22;1667651;85;21564;-66
2022/03/26 08:17:26;;;;;;;21.97;18.95;;;;;;;12.65;44.93;102484.88;1666348;85;21052;-66
2022/03/26 08:19:53;;;;;;;23.47;18.57;;;;;;;12.73;44.56;102490.98;1667743;85;21059;-67
2022/03/26 08:22:20;;;;;;;20.10;18.10;;;;;;;12.74;44.49;102489.21;1666749;85;21028;-67
2022/03/26 08:24:46;;;;;;;24.30;19.52;;;;;;;12.75;44.69;102487.92;1663118;85;21528;-66
2022/03/26 08:27:13;;;;;;;24.00;19.23;;;;;;;12.80;44.47;102491.80;1676598;85;22553;-66
2022/03/26 08:29:40;;;;;;;20.05;17.87;;;;;;;12.86;44.81;102491.78;1666156;85;21485;-66
2022/03/26 08:32:07;;;;;;;21.37;18.77;;;;;;;12.93;44.82;102487.85;1684414;83;21030;-66
2022/03/26 08:34:34;;;;;;;20.72;18.42;;;;;;;13.00;44.32;102486.93;1714850;83;21066;-67
2022/03/26 08:37:04;;;;;;;20.75;18.37;;;;;;;13.05;44.43;102489.56;1714958;83;21040;-67
2022/03/26 08:39:30;;;;;;;21.75;18.02;;;;;;;13.12;44.52;102482.57;1702359;83;20999;-66
2022/03/26 08:41:58;;;;;;;23.07;19.92;;;;;;;13.20;44.75;102480.36;1708996;83;21031;-66
2022/03/26 08:44:26;;;;;;;21.65;18.65;;;;;;;13.22;44.75;102473.80;1715100;83;21579;-67
2022/03/26 08:46:53;;;;;;;23.35;20.43;;;;;;;13.19;44.69;102479.06;1713332;83;21079;-66
2022/03/26 08:49:20;;;;;;;22.45;19.45;;;;;;;13.15;44.68;102481.27;1713003;83;21027;-67
2022/03/26 08:51:47;;;;;;;22.67;19.45;;;;;;;13.12;44.53;102477.34;1714208;83;21003;-66
2022/03/26 08:54:14;;;;;;;24.80;18.75;;;;;;;13.05;44.72;102470.84;1714952;83;21563;-66
2022/03/26 08:56:43;;;;;;;21.52;17.95;;;;;;;13.02;44.26;102465.58;1702299;83;21039;-67
2022/03/26 08:59:10;;;;;;;24.02;20.00;;;;;;;13.03;43.59;102459.49;1714908;83;21536;-66
2022/03/26 09:01:38;;;;;;;23.18;20.17;;;;;;;13.06;43.87;102467.33;1715157;83;21063;-67
2022/03/26 09:04:05;;;;;;;24.05;19.40;;;;;;;13.11;44.21;102463.40;1712965;83;21082;-66
2022/03/26 09:06:33;;;;;;;24.27;19.30;;;;;;;13.16;43.30;102451.63;1713681;83;21016;-66
2022/03/26 09:09:02;;;;;;;19.95;17.77;;;;;;;13.20;43.23;102446.80;1714482;83;21070;-66
2022/03/26 09:11:29;;;;;;;24.77;19.05;;;;;;;13.27;43.00;102446.75;1715130;83;21063;-66
2022/03/26 09:13:56;;;;;;;21.40;19.07;;;;;;;13.35;43.15;102451.95;1715219;83;21525;-66
2022/03/26 09:16:24;;;;;;;25.30;20.75;;;;;;;13.39;43.19;102451.05;1713398;83;21027;-67
2022/03/26 09:18:51;;;;;;;24.55;20.85;;;;;;;13.39;43.05;102447.13;1708267;83;21554;-66
2022/03/26 09:21:18;;;;;;;28.80;22.55;;;;;;;13.42;42.95;102439.25;1720812;83;21551;-66
2022/03/26 09:23:46;;;;;;;21.00;18.60;;;;;;;13.45;42.98;102447.09;1718801;83;21094;-67
2022/03/26 09:26:14;;;;;;;23.42;18.55;;;;;;;13.52;42.86;102436.99;1722685;83;21022;-67
2022/03/26 09:28:41;;;;;;;21.10;17.45;;;;;;;13.60;42.69;102428.69;1717166;83;21024;-67
2022/03/26 09:31:09;;;;;;;20.32;17.75;;;;;;;13.67;42.37;102430.35;1712243;83;21035;-67
2022/03/26 09:33:37;;;;;;;20.75;17.60;;;;;;;13.76;42.26;102425.94;1720833;83;21094;-67
2022/03/26 09:36:04;;;;;;;17.82;15.93;;;;;;;13.88;42.37;102432.80;1724114;82;21027;-67
2022/03/26 09:38:33;;;;;;;21.97;18.02;;;;;;;14.02;41.28;102438.77;1713959;83;21499;-67
2022/03/26 09:41:01;;;;;;;20.88;18.57;;;;;;;14.15;42.72;102420.77;1721395;83;21070;-67
2022/03/26 09:43:29;;;;;;;22.48;20.08;;;;;;;14.26;43.80;102413.65;1726833;82;21035;-67
2022/03/26 09:45:58;;;;;;;22.45;20.05;;;;;;;14.31;44.72;102410.59;1727954;83;21007;-67
2022/03/26 09:48:25;;;;;;;22.37;19.98;;;;;;;14.32;45.19;102408.84;1724389;82;21071;-67
2022/03/26 09:50:54;;;;;;;21.50;19.32;;;;;;;14.28;45.54;102407.98;1724650;83;21031;-67
2022/03/26 09:53:21;;;;;;;27.37;20.72;;;;;;;14.26;45.84;102402.34;1724121;83;21000;-67
2022/03/26 09:55:48;;;;;;;22.27;19.10;;;;;;;14.24;46.18;102406.25;1724813;82;21027;-67
2022/03/26 09:58:16;;;;;;;22.32;19.30;;;;;;;14.22;46.22;102393.63;1713553;83;21035;-67
2022/03/26 10:00:44;;;;;;;23.30;20.57;;;;;;;14.21;46.30;102393.21;1729466;83;21074;-67
2022/03/26 10:03:11;;;;;;;20.70;18.55;;;;;;;14.18;46.33;102394.54;1716408;83;21077;-67
2022/03/26 10:05:39;;;;;;;22.67;20.30;;;;;;;14.13;46.36;102375.41;1720418;83;21004;-67
2022/03/26 10:08:23;;;;;;;21.93;19.62;;;;;;;14.13;46.26;102380.65;1727917;83;21035;-67
2022/03/26 10:10:51;;;;;;;24.43;18.98;;;;;;;14.13;46.28;102380.65;1657137;86;21069;-67
2022/03/26 10:13:37;;;;;;;20.43;18.30;;;;;;;14.14;46.22;102382.37;1656410;86;21005;-67
2022/03/26 10:16:10;;;;;;;20.08;17.98;;;;;;;14.14;46.23;102371.89;1655209;86;21553;-66
2022/03/26 10:18:40;;;;;;;20.65;18.45;;;;;;;14.14;46.22;102370.59;1653695;86;21081;-67
2022/03/26 10:21:13;;;;;;;21.25;18.85;;;;;;;14.15;46.21;102372.34;1642756;86;21058;-67
2022/03/26 10:23:50;;;;;;;20.70;18.52;;;;;;;14.19;46.18;102370.11;1644220;87;21066;-67
2022/03/26 10:26:21;;;;;;;22.07;19.65;;;;;;;14.21;45.91;102369.65;1644841;86;21082;-67
2022/03/26 10:28:59;;;;;;;21.02;18.82;;;;;;;14.21;46.09;102367.03;1643151;87;21050;-67
2022/03/26 10:34:19;;;;;;;23.83;19.32;;;;;;;14.26;46.02;102349.50;1644622;86;21179;-67
2022/03/26 10:36:55;;;;;;;21.40;19.10;;;;;;;14.28;45.96;102338.59;1565640;90;21136;-66
2022/03/26 10:39:26;;;;;;;21.87;19.40;;;;;;;14.30;46.01;102331.59;1567583;90;21088;-67
2022/03/26 10:41:54;;;;;;;19.80;17.57;;;;;;;14.31;45.91;102321.55;1526340;93;21074;-68
2022/03/26 10:44:28;;;;;;;19.87;17.07;;;;;;;14.33;45.90;102313.67;1504488;93;21074;-66
2022/03/26 10:47:00;;;;;;;19.80;17.65;;;;;;;14.32;45.85;102298.40;1482434;94;21165;-67
2022/03/26 10:49:36;;;;;;;23.05;18.85;;;;;;;14.33;45.83;102314.55;1475478;96;21069;-67
2022/03/26 10:52:18;;;;;;;20.45;18.25;;;;;;;14.36;45.80;102305.80;1468173;98;21105;-66
2022/03/26 10:54:47;;;;;;;20.17;18.02;;;;;;;14.41;45.78;102302.22;1467724;97;21117;-67
2022/03/26 10:57:15;;;;;;;19.62;17.52;;;;;;;14.44;45.56;102296.96;1467474;97;21113;-68
2022/03/26 10:59:42;;;;;;;18.50;16.45;;;;;;;14.47;45.56;102292.09;1439383;98;21099;-67
2022/03/26 11:02:09;;;;;;;19.37;17.30;;;;;;;14.50;45.69;102283.78;1468148;97;21118;-67
2022/03/26 11:04:36;;;;;;;18.80;16.80;;;;;;;14.51;45.41;102281.56;1438515;99;21153;-67
2022/03/26 11:07:05;;;;;;;20.05;17.80;;;;;;;14.50;45.62;102271.99;1454848;98;21126;-68
2022/03/26 11:09:33;;;;;;;20.40;17.90;;;;;;;14.52;45.70;102268.91;1450425;98;21118;-68
2022/03/26 11:12:02;;;;;;;21.80;17.92;;;;;;;14.52;45.80;102266.29;1447912;99;21130;-67
2022/03/26 11:14:33;;;;;;;20.02;16.27;;;;;;;14.52;45.85;102264.10;1447444;97;21197;-67
2022/03/26 11:17:47;;;;;;;19.20;16.25;;;;;;;14.52;45.71;102264.98;1443169;99;21589;-67
2022/03/26 11:20:44;;;;;;;18.30;14.73;;;;;;;14.54;44.77;102246.17;1438968;99;21837;-69
2022/03/26 11:23:46;;;;;;;16.00;14.38;;;;;;;14.55;44.88;102237.41;1439842;99;21165;-68